Report METAR

 

LIMJ -
Dati ricevuti: 20/04/2024 15:50
Few Clouds
Few Clouds
 Vento da N
Vento: N 24 km/h, Raffica: 46 km/h
Temperatura: 20°C
P.to Rugiada: -10°C
Umidità: 12%
Barometro: 1009 hPa
Nuvole: Few Clouds
Visibility: 10 km
Cloud details: Few Clouds 1219 m
2024/04/20 13:50 LIMJ 201350Z 35013G25KT 310V040 9999 FEW040 20/M10 Q1009 WS R28